createdAt,value
2019-04-04T00:01:35.606Z,94016.34
2019-04-04T00:06:40.042Z,94017.89
2019-04-04T00:11:44.478Z,94003.08
2019-04-04T00:16:49.375Z,93996.17
2019-04-04T00:21:53.862Z,93996.70
2019-04-04T00:26:58.343Z,93980.80
2019-04-04T00:32:02.800Z,93975.71
2019-04-04T00:37:07.294Z,93952.11
2019-04-04T00:42:11.735Z,93942.64
2019-04-04T00:47:16.226Z,93950.87
2019-04-04T00:52:20.661Z,93946.38
2019-04-04T00:57:25.114Z,93935.50
2019-04-04T01:02:29.580Z,93926.03
2019-04-04T01:07:35.831Z,93916.76
2019-04-04T01:12:40.179Z,93917.63
2019-04-04T01:17:44.623Z,93907.50
2019-04-04T01:22:49.063Z,93894.80
2019-04-04T01:27:53.508Z,93899.60
2019-04-04T01:32:57.947Z,93896.94
2019-04-04T01:38:02.386Z,93887.45
2019-04-04T01:43:08.848Z,93886.72
2019-04-04T01:48:13.003Z,93874.45
2019-04-04T01:53:17.717Z,93877.98
2019-04-04T01:58:22.173Z,93877.19
2019-04-04T02:03:26.661Z,93871.05
2019-04-04T02:08:31.682Z,93862.34
2019-04-04T02:13:36.645Z,93864.49
2019-04-04T02:18:41.092Z,93848.77
2019-04-04T02:23:45.546Z,93851.14
2019-04-04T02:28:49.982Z,93840.88
2019-04-04T02:33:54.478Z,93825.41
2019-04-04T02:39:12.549Z,93817.45
2019-04-04T02:44:17.758Z,93818.03
2019-04-04T02:49:22.204Z,93795.89
2019-04-04T02:54:26.624Z,93790.14
2019-04-04T02:59:31.109Z,93786.19
2019-04-04T03:04:36.023Z,93773.64
2019-04-04T03:09:43.337Z,93767.21
2019-04-04T03:14:50.338Z,93771.20
2019-04-04T03:19:53.097Z,93758.52
2019-04-04T03:24:57.530Z,93757.70
2019-04-04T03:30:01.998Z,93736.98
2019-04-04T03:35:07.606Z,93719.11
2019-04-04T03:40:12.444Z,93708.69
2019-04-04T03:45:16.893Z,93707.52
2019-04-04T03:50:21.337Z,93701.95
2019-04-04T03:55:27.834Z,93689.39
2019-04-04T04:00:33.433Z,93684.47
2019-04-04T04:05:40.754Z,93685.61
2019-04-04T04:10:44.027Z,93677.14
2019-04-04T04:15:48.537Z,93657.30
2019-04-04T04:20:52.954Z,93647.81
2019-04-04T04:25:57.468Z,93646.77
2019-04-04T04:31:01.917Z,93616.17
2019-04-04T04:36:09.545Z,93613.43
2019-04-04T04:41:13.475Z,93603.48
2019-04-04T04:46:18.114Z,93606.66
2019-04-04T04:51:22.539Z,93585.30
2019-04-04T04:56:26.982Z,93586.67
2019-04-04T05:01:31.493Z,93589.11
2019-04-04T05:06:36.363Z,93585.18
2019-04-04T05:11:40.857Z,93582.21
2019-04-04T05:16:45.301Z,93584.25
2019-04-04T05:21:49.769Z,93564.88
2019-04-04T05:26:54.232Z,93552.98
2019-04-04T05:31:58.695Z,93530.55
2019-04-04T05:37:03.164Z,93524.59
2019-04-04T05:42:07.664Z,93521.44
2019-04-04T05:47:12.140Z,93511.00
2019-04-04T05:52:16.593Z,93493.77
2019-04-04T05:57:21.052Z,93491.53
2019-04-04T06:02:25.501Z,93488.28
2019-04-04T06:07:30.022Z,93473.58
2019-04-04T06:12:37.292Z,93466.97
2019-04-04T06:17:40.639Z,93453.67
2019-04-04T06:22:45.082Z,93458.53
2019-04-04T06:27:49.511Z,93433.21
2019-04-04T06:32:53.983Z,93415.80
2019-04-04T06:37:58.399Z,93404.41
2019-04-04T06:43:04.011Z,93392.67
2019-04-04T06:48:08.553Z,93386.77
2019-04-04T06:53:13.138Z,93379.61
2019-04-04T06:58:17.582Z,93358.41
2019-04-04T07:03:22.017Z,93351.62
2019-04-04T07:08:26.450Z,93361.58
2019-04-04T07:13:41.759Z,93350.69
2019-04-04T07:18:37.062Z,93355.73
2019-04-04T07:23:41.936Z,93346.67
2019-04-04T07:28:50.103Z,93352.23
2019-04-04T07:33:52.746Z,93350.13
2019-04-04T07:38:58.218Z,93356.07
2019-04-04T07:44:03.364Z,93357.89
2019-04-04T07:49:07.816Z,93345.44
2019-04-04T07:54:12.260Z,93354.89
2019-04-04T07:59:16.716Z,93347.35
2019-04-04T08:04:21.175Z,93341.75
2019-04-04T08:09:26.367Z,93343.59
2019-04-04T08:14:30.919Z,93340.14
2019-04-04T08:19:35.395Z,93349.67
2019-04-04T08:24:39.848Z,93346.09
2019-04-04T08:29:44.297Z,93345.78
2019-04-04T08:34:48.739Z,93339.34
2019-04-04T08:39:54.104Z,93331.70
2019-04-04T08:44:58.558Z,93335.55
2019-04-04T08:50:03.062Z,93337.98
2019-04-04T08:55:08.297Z,93346.59
2019-04-04T09:00:13.186Z,93354.63
2019-04-04T09:05:17.649Z,93366.40
2019-04-04T09:10:22.115Z,93369.78
2019-04-04T09:15:26.557Z,93388.16
2019-04-04T09:20:31.014Z,93400.75
2019-04-04T09:25:35.474Z,93414.20
2019-04-04T09:30:39.924Z,93432.84
2019-04-04T09:35:44.638Z,93436.89
2019-04-04T09:40:49.103Z,93449.11
2019-04-04T09:45:53.701Z,93456.64
2019-04-04T09:50:58.216Z,93465.14
2019-04-04T09:56:02.870Z,93469.00
2019-04-04T10:01:07.414Z,93476.00
2019-04-04T10:06:11.938Z,93470.06
2019-04-04T10:11:16.399Z,93475.05
2019-04-04T10:16:20.859Z,93469.09
2019-04-04T10:21:25.326Z,93473.56
2019-04-04T10:26:29.775Z,93483.03
2019-04-04T10:31:34.229Z,93480.88
2019-04-04T10:36:38.741Z,93476.89
2019-04-04T10:41:43.373Z,93480.70
2019-04-04T10:46:47.838Z,93484.26
2019-04-04T10:51:52.291Z,93478.91
2019-04-04T10:56:56.805Z,93495.88
2019-04-04T11:02:01.272Z,93506.20
2019-04-04T11:07:05.737Z,93501.95
2019-04-04T11:12:10.184Z,93494.02
2019-04-04T11:17:14.640Z,93499.17
2019-04-04T11:22:19.094Z,93492.25
2019-04-04T11:27:23.555Z,93486.58
2019-04-04T11:32:28.184Z,93485.67
2019-04-04T11:37:32.639Z,93483.81
2019-04-04T11:42:37.103Z,93490.97
2019-04-04T11:47:41.565Z,93492.61
2019-04-04T11:52:46.023Z,93489.39
2019-04-04T11:57:50.547Z,93510.48
2019-04-04T12:02:55.011Z,93498.58
2019-04-04T12:07:59.462Z,93491.66
2019-04-04T12:13:03.924Z,93503.33
2019-04-04T12:18:08.379Z,93497.25
2019-04-04T12:23:12.828Z,93481.66
2019-04-04T12:28:17.284Z,93482.03
2019-04-04T12:33:21.748Z,93485.13
2019-04-04T12:38:26.200Z,93501.58
2019-04-04T12:43:30.657Z,93491.35
2019-04-04T12:48:35.128Z,93488.34
2019-04-04T12:53:39.737Z,93494.72
2019-04-04T12:58:44.189Z,93497.35
2019-04-04T13:03:48.642Z,93509.51
2019-04-04T13:08:53.105Z,93519.09
2019-04-04T13:13:57.565Z,93515.57
2019-04-04T13:19:02.014Z,93513.22
2019-04-04T13:24:06.565Z,93531.20
2019-04-04T13:29:11.033Z,93536.73
2019-04-04T13:34:15.503Z,93538.34
2019-04-04T13:39:19.941Z,93549.92
2019-04-04T13:44:24.399Z,93568.92
2019-04-04T13:49:28.859Z,93588.69
2019-04-04T13:54:33.316Z,93604.34
2019-04-04T13:59:38.052Z,93635.91
2019-04-04T14:04:42.508Z,93639.13
2019-04-04T14:09:46.996Z,93649.73
2019-04-04T14:14:51.453Z,93644.84
2019-04-04T14:19:55.920Z,93661.80
2019-04-04T14:25:00.388Z,93660.98
2019-04-04T14:30:07.536Z,93700.22
2019-04-04T14:35:13.227Z,93732.96
2019-04-04T14:40:17.705Z,93748.33
2019-04-04T14:45:22.204Z,93749.26
2019-04-04T14:50:28.085Z,93746.70
2019-04-04T14:55:32.874Z,93748.02
2019-04-04T15:00:37.324Z,93746.17
2019-04-04T15:05:41.801Z,93759.14
2019-04-04T15:10:46.284Z,93756.95
2019-04-04T15:16:13.435Z,93760.70
2019-04-04T15:21:17.979Z,93765.09
2019-04-04T15:26:23.552Z,93772.53
2019-04-04T15:31:28.054Z,93774.94
2019-04-04T15:36:32.511Z,93790.73
2019-04-04T15:41:37.649Z,93785.13
2019-04-04T15:46:42.210Z,93791.09
2019-04-04T15:51:46.712Z,93791.55
2019-04-04T15:56:51.208Z,93803.47
2019-04-04T16:01:55.806Z,93816.17
2019-04-04T16:07:00.273Z,93829.23
2019-04-04T16:12:04.748Z,93851.88
2019-04-04T16:17:09.211Z,93813.23
2019-04-04T16:22:13.675Z,93838.95
2019-04-04T16:27:18.141Z,93847.44
2019-04-04T16:32:22.599Z,93849.38
2019-04-04T16:37:27.064Z,93884.57
2019-04-04T16:42:31.521Z,93905.43
2019-04-04T16:47:35.982Z,93918.39
2019-04-04T16:52:40.431Z,93941.59
2019-04-04T16:57:45.160Z,93952.70
2019-04-04T17:02:49.650Z,93961.26
2019-04-04T17:07:54.168Z,93981.84
2019-04-04T17:12:58.662Z,93975.81
2019-04-04T17:18:03.118Z,93985.78
2019-04-04T17:23:07.789Z,93981.30
2019-04-04T17:28:12.778Z,93998.27
2019-04-04T17:33:18.744Z,94005.30
2019-04-04T17:38:23.285Z,93997.80
2019-04-04T17:43:27.812Z,94000.88
2019-04-04T17:48:33.132Z,94019.06
